Aeroporto :
LOGIN :

Iscrizione | Disclaimer

   EN    FR    IT 

 










Sommario :    VFR   VFR Marginale   IFR   IFR Intensivo   IFR Molto Intensivo
Visibilità : 
Base nubi : 
>= 8 km
>= 3000ft
5 / 8 km
1000 / 3000 ft
1500m / 5 km
500 / 1000 ft
800 / 1500m
200 / 500 ft
< 800m
< 200 ft
Simboli :   Temporali  Nebbia  Neve Forte  Precipitazioni Forti  Vento > 20 kt
SIGMETs :   Varie  Temporali  Ghiacco  Turbolenza  Onda orograficha  Ceneri Vulcaniche






- Altitudine del aeroporto : 140 ft


ESTL - Ljungbyhed

ULTIMO METAR :
  • 071050Z 30017KT 9999 FEW025 13/05 Q1029

METARs OBSOLETI :
  • 071020Z 30018KT CAVOK 12/05 Q1028
  • 070950Z 29018KT CAVOK 13/04 Q1028
  • 070920Z 29018KT CAVOK 13/04 Q1028
  • 070850Z 29017KT CAVOK 13/03 Q1027
  • 070820Z 30017KT CAVOK 12/04 Q1027

TAF TAF ESTL
Valido dal 07 a 09 ore il 07 a 15 ore UTC


070802Z 0709/0715 29015KT CAVOK
TEMPO 0709/0715 30018G28KT



MetMap, La meteo Aeronautica in un colpo d'occhio ! - Copyright ORBIFLY Dicembre 2007 - Disclaimer

ORBIFLY MET'MAP TEAM :

Programmazione e sviluppo : Alexandra Zaïnal
Concezione : Baudouin d'Aumeries
Aiuto per la programmazione : Marc-Olivier Méhu
Supporto tecnico e logistico : Manuel Goepfert
Aiuto per la traduzione : Arnaldo La Scala

Contatto : metmap@orbifly.com




FONTI E CREDITI :

   NOAA